WX4FC Weather Reports


Display with metric or nautical units.
time (UTC)temp
F
wind
direction
speed
MPH
gust
MPH
rain 1hr
in
rain 24hr
in
rain mn
in
humidity
%
barometer
mb
20180718070321 71 225 0.0 0.0 0.00 0.00 0.00
20180718063332 71 225 0.0 0.0 0.00 0.00 0.00
20180718062337 71 225 0.0 0.0 0.00 0.00 0.00
20180718055348 71 278 0.0 0.0 0.00 0.00 0.00
20180718051400 71 79 0.0 0.0 0.00 0.00 0.00
20180718050405 71 79 0.0 0.0 0.00 0.00 0.00
20180718045410 72 79 0.0 0.0 0.00 0.00 0.00
20180718044411 72 186 0.0 0.0 0.00 0.00 0.00
20180718043417 72 176 0.0 0.0 0.00 0.00 0.00
20180718042422 72 256 0.0 0.0 0.00 0.00 0.00
20180718040427 72 31 0.0 0.0 0.00 0.00 0.00
20180718035433 72 65 3.0 4.0 0.00 0.00 0.00
20180718034433 72 246 0.0 0.0 0.00 0.00 0.00
20180718032442 72 246 0.0 0.0 0.00 0.00 0.00
20180718031444 72 274 5.0 3.0 0.00 0.00 0.00
20180718030448 72 283 3.0 5.0 0.00 0.00 0.00
20180718025455 72 305 7.0 6.0 0.00 0.00 0.00
20180718024455 72 267 0.0 0.0 0.00 0.00 0.00
20180718022504 72 204 0.0 0.0 0.00 0.00 0.00
20180718021508 73 212 2.0 3.0 0.00 0.00 0.00
20180718020511 73 20 0.0 0.0 0.00 0.00 0.00
20180718015515 73 20 0.0 0.0 0.00 0.00 0.00
20180718014516 73 20 0.0 0.0 0.00 0.00 0.00
20180718013521 73 359 4.0 6.0 0.00 0.00 0.00
20180718012526 73 245 0.0 0.0 0.00 0.00 0.00
20180718011527 73 255 4.0 0.0 0.00 0.00 0.00
20180718010533 73 298 5.0 5.0 0.00 0.00 0.00
20180718003543 73 226 0.0 0.0 0.00 0.00 0.00
20180718002547 73 232 1.0 0.0 0.00 0.00 0.00
20180718001549 73 204 5.0 6.0 0.00 0.00 0.00
20180717235558 73 225 6.0 7.0 0.00 0.00 0.00
20180717234600 73 195 6.0 5.0 0.00 0.00 0.00
20180717233604 73 250 5.0 6.0 0.00 0.00 0.00
20180717232609 73 217 8.0 6.0 0.00 0.00 0.00
20180717231611 73 252 0.0 0.0 0.00 0.00 0.00
20180717230615 72 252 0.0 0.0 0.00 0.00 0.00
20180717223626 72 257 0.0 0.0 0.00 0.00 0.00
20180717222631 71 226 4.0 0.0 0.00 0.00 0.00
20180717221632 72 214 6.0 6.0 0.00 0.00 0.00
20180717220637 73 245 7.0 10.0 0.00 0.00 0.00
20180717215642 74 307 6.0 8.0 0.00 0.00 0.00
20180717213648 76 91 4.0 0.0 0.00 0.00 0.00
20180717212652 76 118 6.0 10.0 0.00 0.00 0.00
20180717210659 77 141 9.0 10.0 0.00 0.00 0.00
20180717205703 79 52 12.0 18.0 0.00 0.00 0.00
20180717203712 83 76 9.0 10.0 0.00 0.00 0.00
20180717201718 84 53 8.0 7.0 0.00 0.00 0.00
20180717200722 86 35 4.0 3.0 0.00 0.00 0.00
20180717193733 85 281 11.0 10.0 0.00 0.00 0.00
20180717192738 86 273 7.0 10.0 0.00 0.00 0.00
20180717185748 86 243 7.0 8.0 0.00 0.00 0.00
20180717184751 85 242 7.0 5.0 0.00 0.00 0.00
20180717183754 85 238 8.0 8.0 0.00 0.00 0.00
20180717180806 84 248 7.0 9.0 0.00 0.00 0.00
20180717174812 83 252 7.0 7.0 0.00 0.00 0.00
20180717173816 83 262 6.0 9.0 0.00 0.00 0.00
20180717165832 81 155 2.0 3.0 0.00 0.00 0.00
20180717162843 79 200 7.0 5.0 0.00 0.00 0.00
20180717161846 78 205 6.0 5.0 0.00 0.00 0.00
20180717154854 77 179 2.0 0.0 0.00 0.00 0.00
20180717144917 75 233 5.0 5.0 0.00 0.00 0.00
20180717143920 75 204 3.0 0.0 0.00 0.00 0.00
20180717135935 74 242 2.0 3.0 0.00 0.00 0.00
20180717134937 74 300 5.0 3.0 0.00 0.00 0.00
20180717133943 74 326 3.0 7.0 0.00 0.00 0.00
20180717125957 73 270 0.0 0.0 0.00 0.00 0.00
20180717124005 72 257 0.0 0.0 0.00 0.00 0.00
20180717121016 71 194 0.0 0.0 0.00 0.00 0.00
20180717112033 71 194 0.0 0.0 0.00 0.00 0.00
20180717105043 71 194 0.0 0.0 0.00 0.00 0.00
20180717103054 71 233 2.0 0.0 0.00 0.00 0.00
20180717102053 71 240 4.0 4.0 0.00 0.00 0.00
20180717100104 71 249 4.0 6.0 0.00 0.00 0.00
20180717095106 71 248 5.0 5.0 0.00 0.00 0.00
20180717094109 71 256 6.0 5.0 0.00 0.00 0.00
20180717092116 71 222 0.0 0.0 0.00 0.00 0.00
20180717091121 71 222 0.0 0.0 0.00 0.00 0.00
20180717085127 71 246 5.0 5.0 0.00 0.00 0.00
20180717083137 71 280 3.0 5.0 0.00 0.00 0.00
20180717074153 71 245 4.0 4.0 0.00 0.00 0.00
20180717073156 72 240 9.0 8.0 0.00 0.00 0.00
20180717071203 71 248 4.0 7.0 0.00 0.00 0.00